sensor_id;sensor_type;location;lat;lon;timestamp;P1;durP1;ratioP1;P2;durP2;ratioP2
58208;SDS011;44006;52.028;4.696;2022-11-20T00:01:32;18.77;;;11.57;;
58208;SDS011;44006;52.028;4.696;2022-11-20T00:04:00;17.80;;;11.18;;
58208;SDS011;44006;52.028;4.696;2022-11-20T00:06:26;19.02;;;11.45;;
58208;SDS011;44006;52.028;4.696;2022-11-20T00:08:53;19.52;;;11.38;;
58208;SDS011;44006;52.028;4.696;2022-11-20T00:11:20;20.52;;;12.00;;
58208;SDS011;44006;52.028;4.696;2022-11-20T00:13:46;19.25;;;12.02;;
58208;SDS011;44006;52.028;4.696;2022-11-20T00:16:12;21.73;;;12.13;;
58208;SDS011;44006;52.028;4.696;2022-11-20T00:18:38;18.33;;;11.55;;
58208;SDS011;44006;52.028;4.696;2022-11-20T00:21:05;18.13;;;11.50;;
58208;SDS011;44006;52.028;4.696;2022-11-20T00:23:30;21.45;;;11.48;;
58208;SDS011;44006;52.028;4.696;2022-11-20T00:26:01;20.17;;;12.00;;
58208;SDS011;44006;52.028;4.696;2022-11-20T00:28:27;21.17;;;12.48;;
58208;SDS011;44006;52.028;4.696;2022-11-20T00:30:54;20.83;;;12.32;;
58208;SDS011;44006;52.028;4.696;2022-11-20T00:33:24;20.67;;;11.40;;
58208;SDS011;44006;52.028;4.696;2022-11-20T00:35:50;19.73;;;11.52;;
58208;SDS011;44006;52.028;4.696;2022-11-20T00:38:15;20.55;;;12.07;;
58208;SDS011;44006;52.028;4.696;2022-11-20T00:40:40;18.85;;;11.73;;
58208;SDS011;44006;52.028;4.696;2022-11-20T00:43:05;19.58;;;11.80;;
58208;SDS011;44006;52.028;4.696;2022-11-20T00:45:31;20.42;;;12.05;;
58208;SDS011;44006;52.028;4.696;2022-11-20T00:50:25;22.45;;;12.77;;
58208;SDS011;44006;52.028;4.696;2022-11-20T00:52:55;20.42;;;11.98;;
58208;SDS011;44006;52.028;4.696;2022-11-20T00:55:20;20.23;;;11.90;;
58208;SDS011;44006;52.028;4.696;2022-11-20T00:57:46;19.08;;;11.52;;
58208;SDS011;44006;52.028;4.696;2022-11-20T01:00:11;20.63;;;12.18;;
58208;SDS011;44006;52.028;4.696;2022-11-20T01:02:36;20.17;;;11.95;;
58208;SDS011;44006;52.028;4.696;2022-11-20T01:05:03;20.40;;;11.77;;
58208;SDS011;44006;52.028;4.696;2022-11-20T01:07:28;21.10;;;13.18;;
58208;SDS011;44006;52.028;4.696;2022-11-20T01:09:59;21.83;;;12.90;;
58208;SDS011;44006;52.028;4.696;2022-11-20T01:12:25;20.73;;;11.80;;
58208;SDS011;44006;52.028;4.696;2022-11-20T01:14:51;20.13;;;12.18;;
58208;SDS011;44006;52.028;4.696;2022-11-20T01:17:16;21.40;;;12.93;;
58208;SDS011;44006;52.028;4.696;2022-11-20T01:19:42;20.70;;;12.95;;
58208;SDS011;44006;52.028;4.696;2022-11-20T01:22:07;20.08;;;12.25;;
58208;SDS011;44006;52.028;4.696;2022-11-20T01:24:32;22.83;;;12.43;;
58208;SDS011;44006;52.028;4.696;2022-11-20T01:27:00;22.58;;;11.70;;
58208;SDS011;44006;52.028;4.696;2022-11-20T01:29:25;19.05;;;12.55;;
58208;SDS011;44006;52.028;4.696;2022-11-20T01:31:51;21.75;;;12.27;;
58208;SDS011;44006;52.028;4.696;2022-11-20T01:34:18;19.92;;;12.00;;
58208;SDS011;44006;52.028;4.696;2022-11-20T01:36:44;19.65;;;11.25;;
58208;SDS011;44006;52.028;4.696;2022-11-20T01:39:14;22.05;;;12.70;;
58208;SDS011;44006;52.028;4.696;2022-11-20T01:41:41;19.88;;;11.13;;
58208;SDS011;44006;52.028;4.696;2022-11-20T01:47:09;20.15;;;11.85;;
58208;SDS011;44006;52.028;4.696;2022-11-20T01:49:37;21.08;;;12.55;;
58208;SDS011;44006;52.028;4.696;2022-11-20T01:52:23;21.33;;;12.45;;
58208;SDS011;44006;52.028;4.696;2022-11-20T01:55:08;22.73;;;12.77;;
58208;SDS011;44006;52.028;4.696;2022-11-20T01:57:34;22.15;;;12.88;;
58208;SDS011;44006;52.028;4.696;2022-11-20T02:00:19;21.58;;;12.95;;
58208;SDS011;44006;52.028;4.696;2022-11-20T02:02:50;18.70;;;12.30;;
58208;SDS011;44006;52.028;4.696;2022-11-20T02:05:36;21.13;;;12.27;;
58208;SDS011;44006;52.028;4.696;2022-11-20T02:08:06;21.15;;;12.25;;
58208;SDS011;44006;52.028;4.696;2022-11-20T02:10:32;20.33;;;11.55;;
58208;SDS011;44006;52.028;4.696;2022-11-20T02:12:57;21.27;;;12.25;;
58208;SDS011;44006;52.028;4.696;2022-11-20T02:15:41;19.75;;;11.73;;
58208;SDS011;44006;52.028;4.696;2022-11-20T02:18:07;21.67;;;12.77;;
58208;SDS011;44006;52.028;4.696;2022-11-20T02:20:33;20.83;;;11.40;;
58208;SDS011;44006;52.028;4.696;2022-11-20T02:25:24;23.38;;;12.20;;
58208;SDS011;44006;52.028;4.696;2022-11-20T02:27:50;20.08;;;12.15;;
58208;SDS011;44006;52.028;4.696;2022-11-20T02:30:16;23.55;;;12.38;;
58208;SDS011;44006;52.028;4.696;2022-11-20T02:32:41;20.77;;;12.10;;
58208;SDS011;44006;52.028;4.696;2022-11-20T02:35:37;20.33;;;12.18;;
58208;SDS011;44006;52.028;4.696;2022-11-20T02:37:56;19.63;;;12.30;;
58208;SDS011;44006;52.028;4.696;2022-11-20T02:40:22;21.85;;;13.15;;
58208;SDS011;44006;52.028;4.696;2022-11-20T02:42:47;21.17;;;12.70;;
58208;SDS011;44006;52.028;4.696;2022-11-20T02:45:12;18.70;;;11.27;;
58208;SDS011;44006;52.028;4.696;2022-11-20T02:47:38;20.13;;;12.07;;
58208;SDS011;44006;52.028;4.696;2022-11-20T02:50:06;20.92;;;12.52;;
58208;SDS011;44006;52.028;4.696;2022-11-20T02:52:31;21.73;;;12.27;;
58208;SDS011;44006;52.028;4.696;2022-11-20T02:54:56;19.83;;;11.65;;
58208;SDS011;44006;52.028;4.696;2022-11-20T02:57:22;20.45;;;11.93;;
58208;SDS011;44006;52.028;4.696;2022-11-20T02:59:47;21.15;;;12.48;;
58208;SDS011;44006;52.028;4.696;2022-11-20T03:02:12;20.20;;;12.13;;
58208;SDS011;44006;52.028;4.696;2022-11-20T03:04:38;20.80;;;12.48;;
58208;SDS011;44006;52.028;4.696;2022-11-20T03:07:03;19.95;;;11.40;;
58208;SDS011;44006;52.028;4.696;2022-11-20T03:09:28;21.10;;;12.10;;
58208;SDS011;44006;52.028;4.696;2022-11-20T03:11:54;20.88;;;12.27;;
58208;SDS011;44006;52.028;4.696;2022-11-20T03:14:19;18.30;;;11.88;;
58208;SDS011;44006;52.028;4.696;2022-11-20T03:16:44;20.73;;;12.02;;
58208;SDS011;44006;52.028;4.696;2022-11-20T03:19:10;22.42;;;12.70;;
58208;SDS011;44006;52.028;4.696;2022-11-20T03:21:36;21.33;;;12.25;;
58208;SDS011;44006;52.028;4.696;2022-11-20T03:24:01;21.20;;;12.05;;
58208;SDS011;44006;52.028;4.696;2022-11-20T03:26:27;20.88;;;11.82;;
58208;SDS011;44006;52.028;4.696;2022-11-20T03:29:04;22.42;;;13.57;;
58208;SDS011;44006;52.028;4.696;2022-11-20T03:31:32;20.23;;;11.57;;
58208;SDS011;44006;52.028;4.696;2022-11-20T03:33:58;21.35;;;12.07;;
58208;SDS011;44006;52.028;4.696;2022-11-20T03:36:24;22.13;;;12.55;;
58208;SDS011;44006;52.028;4.696;2022-11-20T03:38:49;22.60;;;12.52;;
58208;SDS011;44006;52.028;4.696;2022-11-20T03:41:19;22.20;;;11.75;;
58208;SDS011;44006;52.028;4.696;2022-11-20T03:43:52;22.65;;;12.57;;
58208;SDS011;44006;52.028;4.696;2022-11-20T03:46:18;20.13;;;12.23;;
58208;SDS011;44006;52.028;4.696;2022-11-20T03:48:43;19.83;;;12.05;;
58208;SDS011;44006;52.028;4.696;2022-11-20T03:51:10;24.30;;;13.07;;
58208;SDS011;44006;52.028;4.696;2022-11-20T03:53:35;22.08;;;12.63;;
58208;SDS011;44006;52.028;4.696;2022-11-20T03:56:01;22.08;;;13.40;;
58208;SDS011;44006;52.028;4.696;2022-11-20T03:58:28;20.98;;;12.18;;
58208;SDS011;44006;52.028;4.696;2022-11-20T04:00:56;21.30;;;12.70;;
58208;SDS011;44006;52.028;4.696;2022-11-20T04:03:21;21.88;;;12.63;;
58208;SDS011;44006;52.028;4.696;2022-11-20T04:05:46;20.90;;;12.35;;
58208;SDS011;44006;52.028;4.696;2022-11-20T04:08:12;22.33;;;12.63;;
58208;SDS011;44006;52.028;4.696;2022-11-20T04:10:38;21.85;;;12.77;;
58208;SDS011;44006;52.028;4.696;2022-11-20T04:13:03;23.73;;;12.85;;
58208;SDS011;44006;52.028;4.696;2022-11-20T04:15:29;20.98;;;12.68;;
58208;SDS011;44006;52.028;4.696;2022-11-20T04:17:54;21.17;;;12.80;;
58208;SDS011;44006;52.028;4.696;2022-11-20T04:20:19;22.58;;;12.63;;
58208;SDS011;44006;52.028;4.696;2022-11-20T04:22:45;22.88;;;12.57;;
58208;SDS011;44006;52.028;4.696;2022-11-20T04:25:10;22.02;;;12.75;;
58208;SDS011;44006;52.028;4.696;2022-11-20T04:27:35;21.85;;;13.88;;
58208;SDS011;44006;52.028;4.696;2022-11-20T04:30:02;23.25;;;13.55;;
58208;SDS011;44006;52.028;4.696;2022-11-20T04:32:27;21.13;;;13.23;;
58208;SDS011;44006;52.028;4.696;2022-11-20T04:34:52;23.25;;;13.70;;
58208;SDS011;44006;52.028;4.696;2022-11-20T04:37:18;23.35;;;13.20;;
58208;SDS011;44006;52.028;4.696;2022-11-20T04:39:43;24.65;;;13.20;;
58208;SDS011;44006;52.028;4.696;2022-11-20T04:42:09;25.38;;;13.93;;
58208;SDS011;44006;52.028;4.696;2022-11-20T04:44:56;25.02;;;14.07;;
58208;SDS011;44006;52.028;4.696;2022-11-20T04:47:22;23.27;;;14.30;;
58208;SDS011;44006;52.028;4.696;2022-11-20T04:49:47;23.23;;;13.82;;
58208;SDS011;44006;52.028;4.696;2022-11-20T04:52:13;25.13;;;13.27;;
58208;SDS011;44006;52.028;4.696;2022-11-20T04:54:38;26.58;;;13.77;;
58208;SDS011;44006;52.028;4.696;2022-11-20T04:57:03;22.48;;;13.50;;
58208;SDS011;44006;52.028;4.696;2022-11-20T04:59:30;27.80;;;14.02;;
58208;SDS011;44006;52.028;4.696;2022-11-20T05:01:56;24.35;;;14.13;;
58208;SDS011;44006;52.028;4.696;2022-11-20T05:04:21;25.20;;;13.65;;
58208;SDS011;44006;52.028;4.696;2022-11-20T05:06:47;22.75;;;14.05;;
58208;SDS011;44006;52.028;4.696;2022-11-20T05:09:13;23.08;;;13.35;;
58208;SDS011;44006;52.028;4.696;2022-11-20T05:11:38;24.85;;;13.73;;
58208;SDS011;44006;52.028;4.696;2022-11-20T05:14:04;26.83;;;13.82;;
58208;SDS011;44006;52.028;4.696;2022-11-20T05:16:30;26.00;;;13.70;;
58208;SDS011;44006;52.028;4.696;2022-11-20T05:18:57;22.85;;;13.23;;
58208;SDS011;44006;52.028;4.696;2022-11-20T05:21:22;24.55;;;13.18;;
58208;SDS011;44006;52.028;4.696;2022-11-20T05:23:48;23.77;;;13.85;;
58208;SDS011;44006;52.028;4.696;2022-11-20T05:26:17;23.10;;;13.20;;
58208;SDS011;44006;52.028;4.696;2022-11-20T05:28:43;22.00;;;12.93;;
58208;SDS011;44006;52.028;4.696;2022-11-20T05:31:13;24.35;;;14.07;;
58208;SDS011;44006;52.028;4.696;2022-11-20T05:33:45;24.42;;;13.98;;
58208;SDS011;44006;52.028;4.696;2022-11-20T05:36:11;23.45;;;13.65;;
58208;SDS011;44006;52.028;4.696;2022-11-20T05:38:36;25.88;;;13.93;;
58208;SDS011;44006;52.028;4.696;2022-11-20T05:41:06;25.00;;;13.82;;
58208;SDS011;44006;52.028;4.696;2022-11-20T05:43:33;23.73;;;13.20;;
58208;SDS011;44006;52.028;4.696;2022-11-20T05:45:59;24.55;;;14.20;;
58208;SDS011;44006;52.028;4.696;2022-11-20T05:48:24;23.77;;;13.73;;
58208;SDS011;44006;52.028;4.696;2022-11-20T05:50:49;22.02;;;12.52;;
58208;SDS011;44006;52.028;4.696;2022-11-20T05:53:15;25.10;;;14.05;;
58208;SDS011;44006;52.028;4.696;2022-11-20T05:55:42;27.95;;;14.38;;
58208;SDS011;44006;52.028;4.696;2022-11-20T05:58:10;24.17;;;13.20;;
58208;SDS011;44006;52.028;4.696;2022-11-20T06:00:36;27.25;;;14.13;;
58208;SDS011;44006;52.028;4.696;2022-11-20T06:03:01;23.65;;;13.68;;
58208;SDS011;44006;52.028;4.696;2022-11-20T06:05:27;25.75;;;13.88;;
58208;SDS011;44006;52.028;4.696;2022-11-20T06:07:52;24.55;;;14.20;;
58208;SDS011;44006;52.028;4.696;2022-11-20T06:10:20;25.02;;;14.80;;
58208;SDS011;44006;52.028;4.696;2022-11-20T06:12:46;23.80;;;13.50;;
58208;SDS011;44006;52.028;4.696;2022-11-20T06:15:11;24.95;;;13.77;;
58208;SDS011;44006;52.028;4.696;2022-11-20T06:17:37;27.35;;;15.32;;
58208;SDS011;44006;52.028;4.696;2022-11-20T06:20:02;25.65;;;14.63;;
58208;SDS011;44006;52.028;4.696;2022-11-20T06:22:27;31.17;;;14.85;;
58208;SDS011;44006;52.028;4.696;2022-11-20T06:24:52;28.13;;;15.65;;
58208;SDS011;44006;52.028;4.696;2022-11-20T06:27:18;30.23;;;15.73;;
58208;SDS011;44006;52.028;4.696;2022-11-20T06:29:43;27.30;;;15.35;;
58208;SDS011;44006;52.028;4.696;2022-11-20T06:32:09;28.52;;;15.70;;
58208;SDS011;44006;52.028;4.696;2022-11-20T06:34:34;29.02;;;15.45;;
58208;SDS011;44006;52.028;4.696;2022-11-20T06:36:59;26.08;;;14.90;;
58208;SDS011;44006;52.028;4.696;2022-11-20T06:39:24;27.85;;;15.75;;
58208;SDS011;44006;52.028;4.696;2022-11-20T06:41:50;26.60;;;15.45;;
58208;SDS011;44006;52.028;4.696;2022-11-20T06:44:15;26.38;;;15.65;;
58208;SDS011;44006;52.028;4.696;2022-11-20T06:46:40;26.38;;;15.52;;
58208;SDS011;44006;52.028;4.696;2022-11-20T06:49:06;28.58;;;16.13;;
58208;SDS011;44006;52.028;4.696;2022-11-20T06:51:31;27.05;;;15.93;;
58208;SDS011;44006;52.028;4.696;2022-11-20T06:53:56;28.75;;;15.23;;
58208;SDS011;44006;52.028;4.696;2022-11-20T06:56:22;26.95;;;15.68;;
58208;SDS011;44006;52.028;4.696;2022-11-20T06:58:47;28.98;;;16.35;;
58208;SDS011;44006;52.028;4.696;2022-11-20T07:01:13;28.58;;;16.45;;
58208;SDS011;44006;52.028;4.696;2022-11-20T07:03:39;29.95;;;16.77;;
58208;SDS011;44006;52.028;4.696;2022-11-20T07:06:04;29.67;;;17.05;;
58208;SDS011;44006;52.028;4.696;2022-11-20T07:08:32;29.50;;;16.10;;
58208;SDS011;44006;52.028;4.696;2022-11-20T07:11:03;29.05;;;16.70;;
58208;SDS011;44006;52.028;4.696;2022-11-20T07:13:29;30.60;;;17.52;;
58208;SDS011;44006;52.028;4.696;2022-11-20T07:16:06;30.10;;;17.40;;
58208;SDS011;44006;52.028;4.696;2022-11-20T07:21:00;33.53;;;17.60;;
58208;SDS011;44006;52.028;4.696;2022-11-20T07:23:29;31.98;;;18.02;;
58208;SDS011;44006;52.028;4.696;2022-11-20T07:25:54;32.10;;;17.38;;
58208;SDS011;44006;52.028;4.696;2022-11-20T07:30:53;29.80;;;17.48;;
58208;SDS011;44006;52.028;4.696;2022-11-20T07:33:19;33.35;;;18.00;;
58208;SDS011;44006;52.028;4.696;2022-11-20T07:35:45;31.55;;;18.27;;
58208;SDS011;44006;52.028;4.696;2022-11-20T07:38:12;32.97;;;18.20;;
58208;SDS011;44006;52.028;4.696;2022-11-20T07:40:38;35.58;;;18.25;;
58208;SDS011;44006;52.028;4.696;2022-11-20T07:43:04;31.75;;;18.60;;
58208;SDS011;44006;52.028;4.696;2022-11-20T07:45:29;30.42;;;18.27;;
58208;SDS011;44006;52.028;4.696;2022-11-20T07:47:56;34.92;;;18.90;;
58208;SDS011;44006;52.028;4.696;2022-11-20T07:50:24;35.35;;;20.30;;
58208;SDS011;44006;52.028;4.696;2022-11-20T07:53:00;34.78;;;19.33;;
58208;SDS011;44006;52.028;4.696;2022-11-20T07:55:30;33.92;;;18.52;;
58208;SDS011;44006;52.028;4.696;2022-11-20T07:57:57;31.00;;;18.48;;
58208;SDS011;44006;52.028;4.696;2022-11-20T08:00:22;33.97;;;19.17;;
58208;SDS011;44006;52.028;4.696;2022-11-20T08:02:50;34.90;;;19.52;;
58208;SDS011;44006;52.028;4.696;2022-11-20T08:05:17;34.15;;;19.35;;
58208;SDS011;44006;52.028;4.696;2022-11-20T08:07:43;34.47;;;19.40;;
58208;SDS011;44006;52.028;4.696;2022-11-20T08:10:13;34.47;;;20.10;;
58208;SDS011;44006;52.028;4.696;2022-11-20T08:12:45;40.70;;;20.15;;
58208;SDS011;44006;52.028;4.696;2022-11-20T08:15:30;32.15;;;19.08;;
58208;SDS011;44006;52.028;4.696;2022-11-20T08:18:14;34.83;;;19.95;;
58208;SDS011;44006;52.028;4.696;2022-11-20T08:20:40;35.95;;;19.95;;
58208;SDS011;44006;52.028;4.696;2022-11-20T08:23:06;35.00;;;20.38;;
58208;SDS011;44006;52.028;4.696;2022-11-20T08:25:31;33.60;;;19.50;;
58208;SDS011;44006;52.028;4.696;2022-11-20T08:28:00;34.85;;;19.90;;
58208;SDS011;44006;52.028;4.696;2022-11-20T08:30:27;34.70;;;20.38;;
58208;SDS011;44006;52.028;4.696;2022-11-20T08:32:53;33.03;;;19.10;;
58208;SDS011;44006;52.028;4.696;2022-11-20T08:35:20;37.35;;;20.27;;
58208;SDS011;44006;52.028;4.696;2022-11-20T08:37:46;40.83;;;22.40;;
58208;SDS011;44006;52.028;4.696;2022-11-20T08:40:11;34.05;;;21.17;;
58208;SDS011;44006;52.028;4.696;2022-11-20T08:42:37;34.50;;;20.58;;
58208;SDS011;44006;52.028;4.696;2022-11-20T08:45:02;36.38;;;21.00;;
58208;SDS011;44006;52.028;4.696;2022-11-20T08:47:27;35.72;;;20.30;;
58208;SDS011;44006;52.028;4.696;2022-11-20T08:49:53;39.10;;;20.75;;
58208;SDS011;44006;52.028;4.696;2022-11-20T08:52:18;35.08;;;21.25;;
58208;SDS011;44006;52.028;4.696;2022-11-20T08:54:43;35.33;;;21.13;;
58208;SDS011;44006;52.028;4.696;2022-11-20T08:57:09;38.38;;;21.23;;
58208;SDS011;44006;52.028;4.696;2022-11-20T08:59:36;36.15;;;20.88;;
58208;SDS011;44006;52.028;4.696;2022-11-20T09:02:01;37.47;;;21.38;;
58208;SDS011;44006;52.028;4.696;2022-11-20T09:04:28;34.50;;;20.55;;
58208;SDS011;44006;52.028;4.696;2022-11-20T09:06:53;36.42;;;20.15;;
58208;SDS011;44006;52.028;4.696;2022-11-20T09:09:18;39.63;;;21.45;;
58208;SDS011;44006;52.028;4.696;2022-11-20T09:11:45;39.42;;;22.02;;
58208;SDS011;44006;52.028;4.696;2022-11-20T09:14:10;38.20;;;21.77;;
58208;SDS011;44006;52.028;4.696;2022-11-20T09:16:36;41.30;;;23.23;;
58208;SDS011;44006;52.028;4.696;2022-11-20T09:19:03;38.10;;;21.75;;
58208;SDS011;44006;52.028;4.696;2022-11-20T09:21:29;40.10;;;22.38;;
58208;SDS011;44006;52.028;4.696;2022-11-20T09:23:55;37.97;;;22.48;;
58208;SDS011;44006;52.028;4.696;2022-11-20T09:26:20;37.35;;;21.35;;
58208;SDS011;44006;52.028;4.696;2022-11-20T09:28:46;35.92;;;22.02;;
58208;SDS011;44006;52.028;4.696;2022-11-20T09:31:31;40.00;;;22.17;;
58208;SDS011;44006;52.028;4.696;2022-11-20T09:33:56;42.72;;;23.90;;
58208;SDS011;44006;52.028;4.696;2022-11-20T09:36:22;38.78;;;22.67;;
58208;SDS011;44006;52.028;4.696;2022-11-20T09:38:47;39.40;;;22.58;;
58208;SDS011;44006;52.028;4.696;2022-11-20T09:49:32;40.38;;;23.23;;
58208;SDS011;44006;52.028;4.696;2022-11-20T09:52:20;40.08;;;23.05;;
58208;SDS011;44006;52.028;4.696;2022-11-20T09:54:47;42.40;;;24.92;;
58208;SDS011;44006;52.028;4.696;2022-11-20T09:57:34;43.55;;;23.50;;
58208;SDS011;44006;52.028;4.696;2022-11-20T10:00:02;43.28;;;24.05;;
58208;SDS011;44006;52.028;4.696;2022-11-20T10:03:05;41.47;;;24.30;;
58208;SDS011;44006;52.028;4.696;2022-11-20T10:05:22;51.13;;;24.20;;
58208;SDS011;44006;52.028;4.696;2022-11-20T10:07:55;49.05;;;25.08;;
58208;SDS011;44006;52.028;4.696;2022-11-20T10:10:41;43.15;;;24.33;;
58208;SDS011;44006;52.028;4.696;2022-11-20T10:18:14;65.40;;;26.65;;
58208;SDS011;44006;52.028;4.696;2022-11-20T10:23:18;51.40;;;27.17;;
58208;SDS011;44006;52.028;4.696;2022-11-20T10:31:36;47.60;;;25.50;;
58208;SDS011;44006;52.028;4.696;2022-11-20T10:34:14;45.70;;;24.92;;
58208;SDS011;44006;52.028;4.696;2022-11-20T10:36:55;42.90;;;24.35;;
58208;SDS011;44006;52.028;4.696;2022-11-20T10:39:28;47.03;;;24.38;;
58208;SDS011;44006;52.028;4.696;2022-11-20T10:41:56;48.97;;;26.30;;
58208;SDS011;44006;52.028;4.696;2022-11-20T10:44:25;51.88;;;27.10;;
58208;SDS011;44006;52.028;4.696;2022-11-20T10:47:15;50.55;;;27.65;;
58208;SDS011;44006;52.028;4.696;2022-11-20T10:49:43;53.35;;;27.05;;
58208;SDS011;44006;52.028;4.696;2022-11-20T11:11:00;54.47;;;28.33;;
58208;SDS011;44006;52.028;4.696;2022-11-20T11:13:29;53.67;;;29.60;;
58208;SDS011;44006;52.028;4.696;2022-11-20T11:15:58;53.13;;;28.60;;
58208;SDS011;44006;52.028;4.696;2022-11-20T11:18:35;53.45;;;27.80;;
58208;SDS011;44006;52.028;4.696;2022-11-20T11:21:08;55.38;;;28.38;;
58208;SDS011;44006;52.028;4.696;2022-11-20T11:23:41;56.15;;;29.50;;
58208;SDS011;44006;52.028;4.696;2022-11-20T11:26:21;50.80;;;28.58;;
58208;SDS011;44006;52.028;4.696;2022-11-20T11:28:54;48.00;;;28.65;;
58208;SDS011;44006;52.028;4.696;2022-11-20T11:31:29;53.83;;;29.98;;
58208;SDS011;44006;52.028;4.696;2022-11-20T11:34:07;52.00;;;29.02;;
58208;SDS011;44006;52.028;4.696;2022-11-20T11:36:35;53.45;;;29.05;;
58208;SDS011;44006;52.028;4.696;2022-11-20T11:39:16;51.53;;;29.20;;
58208;SDS011;44006;52.028;4.696;2022-11-20T11:41:44;55.78;;;29.90;;
58208;SDS011;44006;52.028;4.696;2022-11-20T11:47:01;60.72;;;30.30;;
58208;SDS011;44006;52.028;4.696;2022-11-20T11:49:30;57.70;;;29.58;;
58208;SDS011;44006;52.028;4.696;2022-11-20T12:02:37;67.40;;;33.22;;
58208;SDS011;44006;52.028;4.696;2022-11-20T12:07:50;65.68;;;32.33;;
58208;SDS011;44006;52.028;4.696;2022-11-20T12:10:19;72.57;;;34.58;;
58208;SDS011;44006;52.028;4.696;2022-11-20T12:12:54;70.90;;;32.60;;
58208;SDS011;44006;52.028;4.696;2022-11-20T12:15:36;68.35;;;33.97;;
58208;SDS011;44006;52.028;4.696;2022-11-20T12:18:07;67.82;;;33.78;;
58208;SDS011;44006;52.028;4.696;2022-11-20T12:20:36;67.15;;;34.55;;
58208;SDS011;44006;52.028;4.696;2022-11-20T12:23:07;77.03;;;35.13;;
58208;SDS011;44006;52.028;4.696;2022-11-20T12:25:36;71.95;;;35.65;;
58208;SDS011;44006;52.028;4.696;2022-11-20T12:33:13;84.53;;;37.53;;
58208;SDS011;44006;52.028;4.696;2022-11-20T12:47:16;79.55;;;36.25;;
58208;SDS011;44006;52.028;4.696;2022-11-20T13:01:35;80.45;;;37.88;;
58208;SDS011;44006;52.028;4.696;2022-11-20T13:06:40;79.13;;;36.75;;
58208;SDS011;44006;52.028;4.696;2022-11-20T13:09:08;83.20;;;37.22;;
58208;SDS011;44006;52.028;4.696;2022-11-20T13:11:47;77.60;;;36.60;;
58208;SDS011;44006;52.028;4.696;2022-11-20T13:16:57;89.32;;;37.72;;
58208;SDS011;44006;52.028;4.696;2022-11-20T13:19:23;86.97;;;37.17;;
58208;SDS011;44006;52.028;4.696;2022-11-20T13:21:49;84.18;;;39.42;;
58208;SDS011;44006;52.028;4.696;2022-11-20T13:26:44;87.15;;;39.53;;
58208;SDS011;44006;52.028;4.696;2022-11-20T13:29:17;81.95;;;36.63;;
58208;SDS011;44006;52.028;4.696;2022-11-20T13:31:43;86.50;;;38.28;;
58208;SDS011;44006;52.028;4.696;2022-11-20T13:34:09;82.78;;;38.58;;
58208;SDS011;44006;52.028;4.696;2022-11-20T13:36:37;81.47;;;38.58;;
58208;SDS011;44006;52.028;4.696;2022-11-20T13:39:23;87.03;;;39.08;;
58208;SDS011;44006;52.028;4.696;2022-11-20T13:41:53;92.93;;;40.00;;
58208;SDS011;44006;52.028;4.696;2022-11-20T13:44:27;83.80;;;39.90;;
58208;SDS011;44006;52.028;4.696;2022-11-20T13:46:53;96.28;;;40.55;;
58208;SDS011;44006;52.028;4.696;2022-11-20T13:49:38;95.68;;;42.83;;
58208;SDS011;44006;52.028;4.696;2022-11-20T13:54:52;97.15;;;42.95;;
58208;SDS011;44006;52.028;4.696;2022-11-20T14:00:09;98.07;;;40.55;;
58208;SDS011;44006;52.028;4.696;2022-11-20T14:02:36;101.70;;;43.08;;
58208;SDS011;44006;52.028;4.696;2022-11-20T14:05:01;98.30;;;40.95;;
58208;SDS011;44006;52.028;4.696;2022-11-20T14:07:32;102.70;;;43.33;;
58208;SDS011;44006;52.028;4.696;2022-11-20T14:10:00;103.53;;;41.33;;
58208;SDS011;44006;52.028;4.696;2022-11-20T14:12:29;110.85;;;41.80;;
58208;SDS011;44006;52.028;4.696;2022-11-20T14:14:54;102.13;;;43.05;;
58208;SDS011;44006;52.028;4.696;2022-11-20T14:17:28;108.97;;;42.42;;
58208;SDS011;44006;52.028;4.696;2022-11-20T14:19:55;113.85;;;45.10;;
58208;SDS011;44006;52.028;4.696;2022-11-20T14:22:24;168.85;;;50.83;;
58208;SDS011;44006;52.028;4.696;2022-11-20T14:27:35;119.85;;;42.53;;
58208;SDS011;44006;52.028;4.696;2022-11-20T14:30:01;121.38;;;46.42;;
58208;SDS011;44006;52.028;4.696;2022-11-20T14:32:28;125.22;;;44.65;;
58208;SDS011;44006;52.028;4.696;2022-11-20T14:35:02;113.43;;;45.40;;
58208;SDS011;44006;52.028;4.696;2022-11-20T14:37:33;129.75;;;46.30;;
58208;SDS011;44006;52.028;4.696;2022-11-20T14:40:05;152.82;;;48.35;;
58208;SDS011;44006;52.028;4.696;2022-11-20T14:42:47;135.45;;;47.88;;
58208;SDS011;44006;52.028;4.696;2022-11-20T14:45:15;144.00;;;50.15;;
58208;SDS011;44006;52.028;4.696;2022-11-20T14:47:42;140.20;;;50.28;;
58208;SDS011;44006;52.028;4.696;2022-11-20T14:50:14;141.38;;;51.50;;
58208;SDS011;44006;52.028;4.696;2022-11-20T14:53:21;151.75;;;52.10;;
58208;SDS011;44006;52.028;4.696;2022-11-20T14:55:40;141.18;;;53.15;;
58208;SDS011;44006;52.028;4.696;2022-11-20T14:58:27;138.30;;;51.78;;
58208;SDS011;44006;52.028;4.696;2022-11-20T15:00:59;154.85;;;53.63;;
58208;SDS011;44006;52.028;4.696;2022-11-20T15:03:34;145.65;;;51.83;;
58208;SDS011;44006;52.028;4.696;2022-11-20T15:06:02;129.65;;;49.28;;
58208;SDS011;44006;52.028;4.696;2022-11-20T15:08:31;140.10;;;52.53;;
58208;SDS011;44006;52.028;4.696;2022-11-20T15:10:58;139.35;;;50.25;;
58208;SDS011;44006;52.028;4.696;2022-11-20T15:15:58;139.20;;;50.40;;
58208;SDS011;44006;52.028;4.696;2022-11-20T15:18:46;129.25;;;49.90;;
58208;SDS011;44006;52.028;4.696;2022-11-20T15:21:13;134.57;;;51.00;;
58208;SDS011;44006;52.028;4.696;2022-11-20T15:23:40;146.32;;;53.53;;
58208;SDS011;44006;52.028;4.696;2022-11-20T15:26:07;133.25;;;50.25;;
58208;SDS011;44006;52.028;4.696;2022-11-20T15:28:37;128.48;;;49.08;;
58208;SDS011;44006;52.028;4.696;2022-11-20T15:31:08;144.00;;;52.08;;
58208;SDS011;44006;52.028;4.696;2022-11-20T15:33:37;137.70;;;50.60;;
58208;SDS011;44006;52.028;4.696;2022-11-20T15:36:05;118.60;;;48.95;;
58208;SDS011;44006;52.028;4.696;2022-11-20T15:38:30;140.27;;;51.88;;
58208;SDS011;44006;52.028;4.696;2022-11-20T15:40:59;129.82;;;51.25;;
58208;SDS011;44006;52.028;4.696;2022-11-20T15:43:28;132.98;;;49.83;;
58208;SDS011;44006;52.028;4.696;2022-11-20T15:48:42;130.90;;;49.65;;
58208;SDS011;44006;52.028;4.696;2022-11-20T15:53:36;133.73;;;51.25;;
58208;SDS011;44006;52.028;4.696;2022-11-20T15:56:16;122.22;;;48.03;;
58208;SDS011;44006;52.028;4.696;2022-11-20T15:58:42;130.90;;;48.35;;
58208;SDS011;44006;52.028;4.696;2022-11-20T16:01:10;127.40;;;50.28;;
58208;SDS011;44006;52.028;4.696;2022-11-20T16:03:39;128.77;;;50.08;;
58208;SDS011;44006;52.028;4.696;2022-11-20T16:06:05;139.77;;;53.45;;
58208;SDS011;44006;52.028;4.696;2022-11-20T16:08:30;138.25;;;52.97;;
58208;SDS011;44006;52.028;4.696;2022-11-20T16:10:56;133.68;;;51.85;;
58208;SDS011;44006;52.028;4.696;2022-11-20T16:13:22;132.00;;;49.08;;
58208;SDS011;44006;52.028;4.696;2022-11-20T16:16:07;133.80;;;51.42;;
58208;SDS011;44006;52.028;4.696;2022-11-20T16:18:47;130.50;;;50.33;;
58208;SDS011;44006;52.028;4.696;2022-11-20T16:21:13;121.20;;;48.55;;
58208;SDS011;44006;52.028;4.696;2022-11-20T16:23:40;130.20;;;50.30;;
58208;SDS011;44006;52.028;4.696;2022-11-20T16:26:13;129.13;;;49.60;;
58208;SDS011;44006;52.028;4.696;2022-11-20T16:28:42;119.53;;;49.78;;